Time;durP1;ratioP1;P1;durP2;ratioP2;P2;SDS_P1;SDS_P2;PMS_P1;PMS_P2;Temp;Humidity;BMP_temperature;BMP_pressure;BME280_temperature;BME280_humidity;BME280_pressure;Samples;Min_cycle;Max_cycle;Signal;HPM_P1;HPM_P2
2021/12/02 00:00:09;;;;;;;11.10;1.80;;;;;;;;;;5069884;28;20048;-67
2021/12/02 00:02:37;;;;;;;4.30;1.02;;;;;;;;;;5071475;28;20355;-66
2021/12/02 00:05:04;;;;;;;3.90;0.90;;;;;;;;;;5070664;28;20127;-66
2021/12/02 00:07:30;;;;;;;3.85;0.80;;;;;;;;;;5066644;28;20385;-66
2021/12/02 00:09:56;;;;;;;3.72;1.17;;;;;;;;;;5050939;28;20124;-66
2021/12/02 00:12:22;;;;;;;4.72;1.30;;;;;;;;;;5054713;28;20036;-67
2021/12/02 00:14:49;;;;;;;5.22;0.90;;;;;;;;;;5069980;28;20489;-66
2021/12/02 00:17:26;;;;;;;5.10;1.30;;;;;;;;;;5070513;28;20050;-66
2021/12/02 00:22:52;;;;;;;4.80;1.20;;;;;;;;;;5071411;28;20070;-69
2021/12/02 00:25:18;;;;;;;10.43;1.60;;;;;;;;;;5070463;28;20056;-69
2021/12/02 00:27:45;;;;;;;6.55;1.13;;;;;;;;;;5064898;28;20057;-69
2021/12/02 00:30:11;;;;;;;5.00;1.17;;;;;;;;;;5070920;28;20427;-69
2021/12/02 00:32:40;;;;;;;5.18;1.00;;;;;;;;;;5070717;28;20036;-68
2021/12/02 00:35:06;;;;;;;8.80;1.10;;;;;;;;;;5069413;28;20512;-68
2021/12/02 00:37:32;;;;;;;7.15;1.42;;;;;;;;;;5070820;28;20560;-68
2021/12/02 00:39:58;;;;;;;8.00;1.15;;;5.00;99.90;;;;;;5070523;28;20037;-68
2021/12/02 00:42:25;;;;;;;7.38;1.20;;;4.70;99.90;;;;;;5070643;28;20040;-69
2021/12/02 00:44:52;;;;;;;3.97;1.00;;;4.50;99.90;;;;;;5071970;28;20498;-68
2021/12/02 00:47:19;;;;;;;5.20;1.10;;;4.60;99.90;;;;;;5053420;28;20049;-69
2021/12/02 00:49:46;;;;;;;8.88;1.80;;;4.40;99.90;;;;;;5070225;28;20111;-69
2021/12/02 00:52:13;;;;;;;6.68;1.63;;;4.30;99.90;;;;;;5070026;28;20041;-68
2021/12/02 00:54:41;;;;;;;4.38;1.17;;;;;;;;;;5074076;28;20123;-68
2021/12/02 00:57:10;;;;;;;10.02;1.38;;;4.30;99.90;;;;;;5072536;28;20040;-68
2021/12/02 00:59:36;;;;;;;7.20;1.23;;;4.50;99.90;;;;;;5074672;28;20044;-68
2021/12/02 01:02:02;;;;;;;4.03;0.98;;;4.40;99.90;;;;;;5056377;28;20047;-68
2021/12/02 01:04:28;;;;;;;6.78;0.98;;;;;;;;;;5074483;28;20049;-68
2021/12/02 01:06:55;;;;;;;2.35;0.68;;;;;;;;;;5073210;28;20041;-68
2021/12/02 01:09:21;;;;;;;6.13;1.08;;;;;;;;;;5074603;28;20076;-68
2021/12/02 01:11:47;;;;;;;3.20;0.77;;;;;;;;;;5057219;28;20396;-69
2021/12/02 01:14:13;;;;;;;4.47;0.93;;;;;;;;;;5073661;28;20055;-68
2021/12/02 01:16:39;;;;;;;10.07;1.35;;;;;;;;;;5073863;28;20436;-68
2021/12/02 01:19:06;;;;;;;3.97;0.90;;;;;;;;;;5073771;28;20043;-68
2021/12/02 01:21:33;;;;;;;6.25;0.90;;;;;;;;;;5074156;28;20052;-68
2021/12/02 01:24:00;;;;;;;5.15;0.90;;;;;;;;;;5072689;28;20042;-69
2021/12/02 01:26:27;;;;;;;5.60;1.23;;;;;;;;;;5073713;28;20056;-68
2021/12/02 01:28:54;;;;;;;3.03;0.80;;;;;;;;;;5073963;28;20552;-68
2021/12/02 01:31:21;;;;;;;3.40;0.90;;;;;;;;;;5072849;28;20119;-68
2021/12/02 01:33:47;;;;;;;3.58;1.13;;;;;;;;;;5073795;28;20097;-68
2021/12/02 01:36:13;;;;;;;3.47;0.60;;;;;;;;;;5073074;28;20560;-68
2021/12/02 01:38:39;;;;;;;6.97;2.38;;;;;;;;;;5056125;28;20128;-68
2021/12/02 01:41:05;;;;;;;6.82;1.10;;;;;;;;;;5056546;28;20048;-68
2021/12/02 01:43:44;;;;;;;7.07;1.00;;;;;;;;;;5073391;28;20044;-68
2021/12/02 01:46:11;;;;;;;6.35;0.95;;;;;;;;;;5055437;28;20076;-69
2021/12/02 01:48:40;;;;;;;6.05;0.90;;;;;;;;;;5074051;28;20052;-68
2021/12/02 01:51:07;;;;;;;6.32;1.23;;;;;;;;;;5073346;28;20377;-68
2021/12/02 01:53:35;;;;;;;4.50;0.88;;;;;;;;;;5072521;28;20041;-68
2021/12/02 01:56:09;;;;;;;5.40;1.00;;;;;;;;;;5073023;28;20050;-68
2021/12/02 01:58:47;;;;;;;10.30;1.10;;;;;;;;;;5064287;28;20047;-69
2021/12/02 02:01:20;;;;;;;5.45;0.93;;;;;;;;;;5073082;28;20074;-68
2021/12/02 02:03:47;;;;;;;2.03;0.50;;;;;;;;;;5073582;28;20039;-68
2021/12/02 02:06:13;;;;;;;2.05;0.38;;;;;;;;;;5054753;28;20045;-69
2021/12/02 02:08:42;;;;;;;1.77;0.60;;;;;;;;;;5040985;28;20048;-69
2021/12/02 02:11:09;;;;;;;4.68;0.50;;;;;;;;;;5056084;28;20045;-69
2021/12/02 02:13:35;;;;;;;1.98;0.20;;;;;;;;;;5071576;28;20489;-69
2021/12/02 02:16:01;;;;;;;1.17;0.35;;;;;;;;;;5072676;28;20040;-68
2021/12/02 02:18:27;;;;;;;4.53;0.65;;;3.90;99.90;;;;;;5073006;28;20532;-69
2021/12/02 02:21:07;;;;;;;2.05;0.30;;;3.80;99.90;;;;;;5072343;28;20135;-68
2021/12/02 02:23:38;;;;;;;4.03;0.40;;;3.70;99.90;;;;;;5072797;28;20045;-68
2021/12/02 02:26:06;;;;;;;2.92;0.45;;;3.60;99.90;;;;;;5073586;28;20105;-68
2021/12/02 02:28:32;;;;;;;1.67;0.50;;;3.60;99.90;;;;;;5052319;28;20048;-68
2021/12/02 02:30:58;;;;;;;1.00;0.30;;;3.60;99.90;;;;;;5053588;28;20045;-69
2021/12/02 02:33:25;;;;;;;1.33;0.35;;;3.50;99.90;;;;;;5062901;28;20044;-68
2021/12/02 02:35:51;;;;;;;1.08;0.25;;;3.40;99.90;;;;;;5069945;28;20049;-68
2021/12/02 02:38:17;;;;;;;2.88;0.30;;;3.40;99.90;;;;;;5068515;28;20039;-68
2021/12/02 02:40:46;;;;;;;2.20;0.30;;;3.40;99.90;;;;;;5072158;28;20734;-67
2021/12/02 02:43:20;;;;;;;3.00;0.70;;;3.30;99.90;;;;;;5055229;28;20043;-68
2021/12/02 02:45:46;;;;;;;2.03;0.40;;;3.30;99.90;;;;;;5056013;28;20052;-68
2021/12/02 02:48:11;;;;;;;3.95;1.02;;;3.40;99.90;;;;;;5071248;28;20040;-68
2021/12/02 02:50:37;;;;;;;2.00;0.45;;;3.40;99.90;;;;;;5073687;28;20044;-67
2021/12/02 02:53:11;;;;;;;4.65;0.60;;;3.50;99.90;;;;;;5071550;28;20504;-68
2021/12/02 02:55:37;;;;;;;5.30;0.80;;;3.50;99.90;;;;;;5071085;28;20112;-68
2021/12/02 02:58:31;;;;;;;4.55;0.60;;;3.50;99.90;;;;;;5071204;28;20370;-68
2021/12/02 03:01:07;;;;;;;3.67;0.60;;;3.50;99.90;;;;;;5072240;28;20048;-68
2021/12/02 03:03:57;;;;;;;4.13;0.52;;;3.50;99.90;;;;;;5071779;28;20044;-68
2021/12/02 03:06:38;;;;;;;1.58;0.47;;;3.50;99.90;;;;;;5055550;28;20048;-67
2021/12/02 03:09:14;;;;;;;1.95;0.60;;;3.50;99.90;;;;;;5051104;28;20081;-67
2021/12/02 03:11:45;;;;;;;3.78;0.80;;;3.50;99.90;;;;;;5052329;28;20044;-69
2021/12/02 03:14:14;;;;;;;1.77;0.45;;;3.40;99.90;;;;;;5051859;28;20120;-68
2021/12/02 03:16:44;;;;;;;2.33;0.80;;;4.50;99.90;;;;;;5050543;28;20059;-68
2021/12/02 03:19:15;;;;;;;3.58;0.73;;;3.40;99.90;;;;;;5065190;28;20048;-69
2021/12/02 03:21:41;;;;;;;2.15;0.50;;;3.30;99.90;;;;;;5071558;28;20561;-67
2021/12/02 03:24:07;;;;;;;4.25;0.73;;;3.30;99.90;;;;;;5069243;28;20039;-69
2021/12/02 03:26:34;;;;;;;7.28;1.13;;;3.30;99.90;;;;;;5071163;28;20570;-71
2021/12/02 03:29:00;;;;;;;2.22;0.52;;;3.30;99.90;;;;;;5054682;28;20127;-70
2021/12/02 03:31:26;;;;;;;3.55;0.60;;;3.20;99.90;;;;;;5054097;28;20036;-70
2021/12/02 03:33:53;;;;;;;2.72;0.60;;;3.20;99.90;;;;;;5071882;28;20119;-67
2021/12/02 03:36:19;;;;;;;2.13;0.60;;;3.10;99.90;;;;;;5071203;28;20123;-67
2021/12/02 03:38:45;;;;;;;3.58;0.85;;;3.00;99.90;;;;;;5070910;28;20173;-69
2021/12/02 03:41:11;;;;;;;3.67;0.82;;;2.90;99.90;;;;;;5070596;28;20057;-70
2021/12/02 03:43:42;;;;;;;2.53;0.80;;;3.70;99.90;;;;;;5071610;28;20370;-71
2021/12/02 03:46:10;;;;;;;2.38;0.40;;;4.50;99.90;;;;;;5053914;28;20041;-69
2021/12/02 03:48:37;;;;;;;6.40;0.77;;;3.10;99.90;;;;;;5071702;28;20048;-67
2021/12/02 03:51:04;;;;;;;3.95;0.88;;;;;;;;;;5070588;28;20048;-67
2021/12/02 03:53:30;;;;;;;3.90;0.60;;;;;;;;;;5072466;28;20365;-67
2021/12/02 03:55:56;;;;;;;5.22;1.73;;;2.80;99.90;;;;;;5054443;28;20044;-67
2021/12/02 03:58:22;;;;;;;3.05;0.80;;;2.80;99.90;;;;;;5071451;28;20047;-66
2021/12/02 04:00:48;;;;;;;3.83;0.57;;;2.80;99.90;;;;;;5071399;28;20036;-66
2021/12/02 04:03:14;;;;;;;3.60;0.57;;;3.30;99.90;;;;;;5070652;28;20123;-66
2021/12/02 04:05:39;;;;;;;2.33;0.60;;;3.00;99.90;;;;;;5070723;28;20091;-66
2021/12/02 04:08:06;;;;;;;3.67;0.50;;;3.10;99.90;;;;;;5052818;28;20044;-66
2021/12/02 04:10:32;;;;;;;0.98;0.25;;;;;;;;;;5036050;28;20071;-66
2021/12/02 04:13:12;;;;;;;1.42;0.20;;;3.20;99.90;;;;;;5053432;28;20466;-69
2021/12/02 04:15:40;;;;;;;3.35;0.40;;;4.40;99.90;;;;;;5070692;28;20509;-69
2021/12/02 04:18:06;;;;;;;1.88;0.68;;;6.70;99.90;;;;;;5070681;28;20051;-64
2021/12/02 04:20:33;;;;;;;0.00;0.00;;;3.30;99.90;;;;;;5071137;28;20040;-66
2021/12/02 04:22:59;;;;;;;0.22;0.00;;;3.30;99.90;;;;;;5071639;28;20462;-66
2021/12/02 04:25:26;;;;;;;1.73;0.17;;;3.30;99.90;;;;;;5070874;28;20105;-66
2021/12/02 04:27:53;;;;;;;0.70;0.20;;;4.10;99.90;;;;;;5067129;28;20045;-66
2021/12/02 04:30:22;;;;;;;0.10;0.03;;;3.30;99.90;;;;;;5054629;28;20504;-66
2021/12/02 04:32:48;;;;;;;2.08;0.32;;;3.30;99.90;;;;;;5075166;28;20039;-66
2021/12/02 04:35:14;;;;;;;1.23;0.25;;;3.20;99.90;;;;;;5074299;28;20037;-66
2021/12/02 04:37:40;;;;;;;1.48;0.20;;;3.20;99.90;;;;;;5074212;28;20523;-66
2021/12/02 04:40:07;;;;;;;2.45;0.30;;;3.10;99.90;;;;;;5073660;28;20076;-66
2021/12/02 04:42:33;;;;;;;1.75;0.50;;;3.10;99.90;;;;;;5074949;28;20079;-66
2021/12/02 04:44:59;;;;;;;2.28;0.40;;;3.10;99.90;;;;;;5051850;28;20471;-66
2021/12/02 04:47:25;;;;;;;3.20;0.57;;;3.10;99.90;;;;;;5037291;28;20053;-66
2021/12/02 04:49:50;;;;;;;1.20;0.35;;;3.30;99.90;;;;;;5069228;28;20098;-66
2021/12/02 04:52:16;;;;;;;1.00;0.35;;;3.10;99.90;;;;;;5075535;28;20082;-66
2021/12/02 04:54:42;;;;;;;2.17;0.40;;;3.10;99.90;;;;;;5073798;28;20450;-66
2021/12/02 04:57:07;;;;;;;3.80;0.50;;;3.10;99.90;;;;;;5074254;28;20049;-66
2021/12/02 04:59:33;;;;;;;1.85;0.45;;;3.10;99.90;;;;;;5074514;28;20394;-66
2021/12/02 05:01:59;;;;;;;2.58;0.63;;;3.20;99.90;;;;;;5074509;28;20037;-66
2021/12/02 05:04:25;;;;;;;1.48;0.40;;;3.20;99.90;;;;;;5057137;28;20407;-66
2021/12/02 05:06:50;;;;;;;3.83;0.98;;;4.50;99.90;;;;;;5074314;28;20051;-66
2021/12/02 05:09:16;;;;;;;3.35;1.00;;;3.30;99.90;;;;;;5072863;28;20055;-66
2021/12/02 05:11:41;;;;;;;4.80;0.65;;;3.30;99.90;;;;;;5074294;28;20071;-66
2021/12/02 05:14:08;;;;;;;4.15;0.85;;;3.80;99.90;;;;;;5073047;28;20444;-66
2021/12/02 05:16:35;;;;;;;1.48;0.40;;;3.40;99.90;;;;;;5056919;28;20044;-66
2021/12/02 05:19:01;;;;;;;3.92;0.85;;;4.90;99.90;;;;;;5074251;28;20040;-66
2021/12/02 05:21:27;;;;;;;4.93;1.48;;;3.40;99.90;;;;;;5074168;28;20413;-66
2021/12/02 05:23:55;;;;;;;2.83;0.70;;;3.40;99.90;;;;;;5073698;28;20048;-66
2021/12/02 05:26:25;;;;;;;2.95;0.70;;;3.40;99.90;;;;;;5073396;28;20087;-66
2021/12/02 05:28:52;;;;;;;2.33;0.65;;;3.40;99.90;;;;;;5073416;28;20049;-66
2021/12/02 05:31:18;;;;;;;3.67;0.63;;;;;;;;;;5056026;28;20405;-66
2021/12/02 05:33:47;;;;;;;1.92;0.60;;;;;;;;;;5074727;28;20481;-66
2021/12/02 05:36:13;;;;;;;2.92;0.80;;;;;;;;;;5073481;28;20044;-67
2021/12/02 05:38:40;;;;;;;2.58;0.90;;;;;;;;;;5073638;28;20098;-66
2021/12/02 05:41:06;;;;;;;5.20;0.80;;;;;;;;;;5055665;28;20064;-66
2021/12/02 05:43:33;;;;;;;7.03;0.80;;;;;;;;;;5072332;28;20044;-66
2021/12/02 05:45:59;;;;;;;4.28;0.80;;;;;;;;;;5073505;28;20222;-66
2021/12/02 05:48:25;;;;;;;2.70;0.60;;;;;;;;;;5073750;28;20555;-66
2021/12/02 05:50:51;;;;;;;2.28;0.50;;;;;;;;;;5073205;28;20044;-66
2021/12/02 05:53:18;;;;;;;4.28;0.95;;;;;;;;;;5073119;28;20043;-66
2021/12/02 05:55:44;;;;;;;4.25;0.70;;;;;;;;;;5073960;28;20040;-66
2021/12/02 05:58:12;;;;;;;2.17;0.63;;;;;;;;;;5071315;28;20093;-66
2021/12/02 06:00:38;;;;;;;3.03;0.70;;;;;;;;;;5073558;28;20048;-66
2021/12/02 06:03:04;;;;;;;5.18;0.90;;;;;;;;;;5073222;28;20446;-66
2021/12/02 06:05:31;;;;;;;2.60;0.60;;;;;;;;;;5073066;28;20066;-66
2021/12/02 06:07:58;;;;;;;5.10;0.68;;;;;;;;;;5055984;28;20101;-66
2021/12/02 06:10:25;;;;;;;6.65;3.40;;;;;;;;;;5073341;28;20135;-67
2021/12/02 06:12:51;;;;;;;8.50;2.67;;;;;;;;;;5071761;28;20493;-66
2021/12/02 06:15:18;;;;;;;4.97;1.00;;;;;;;;;;5072665;28;20044;-67
2021/12/02 06:17:44;;;;;;;4.10;0.90;;;;;;;;;;5073003;28;20059;-66
2021/12/02 06:20:11;;;;;;;5.03;1.10;;;;;;;;;;5071599;28;20501;-66
2021/12/02 06:22:37;;;;;;;1.92;0.75;;;;;;;;;;5072790;28;20040;-66
2021/12/02 06:27:42;;;;;;;6.85;0.93;;;;;;;;;;5062551;28;20053;-66
2021/12/02 06:30:08;;;;;;;4.13;1.30;;;;;;;;;;5035643;28;20125;-65
2021/12/02 06:32:34;;;;;;;3.30;0.80;;;;;;;;;;5052827;28;20108;-65
2021/12/02 06:35:01;;;;;;;3.65;1.45;;;;;;;;;;5053155;28;20106;-65
2021/12/02 06:37:27;;;;;;;5.35;1.30;;;;;;;;;;5073036;28;20075;-65
2021/12/02 06:39:53;;;;;;;4.70;0.85;;;;;;;;;;5055609;28;20059;-66
2021/12/02 06:42:19;;;;;;;5.70;1.00;;;;;;;;;;5071616;28;20050;-65
2021/12/02 06:44:45;;;;;;;3.70;0.80;;;;;;;;;;5073336;28;20052;-65
2021/12/02 06:47:11;;;;;;;4.07;0.80;;;;;;;;;;5071174;28;20048;-65
2021/12/02 06:49:39;;;;;;;4.45;0.68;;;;;;;;;;5072420;28;20056;-65
2021/12/02 06:52:10;;;;;;;1.05;0.40;;;;;;;;;;5070790;28;20118;-65
2021/12/02 06:54:36;;;;;;;3.20;1.48;;;;;;;;;;5055329;28;20388;-65
2021/12/02 06:57:02;;;;;;;5.00;0.88;;;;;;;;;;5071123;28;20485;-66
2021/12/02 06:59:28;;;;;;;3.63;0.60;;;;;;;;;;5072185;28;20041;-65
2021/12/02 07:01:54;;;;;;;3.83;0.80;;;;;;;;;;5070463;28;20051;-66
2021/12/02 07:04:20;;;;;;;3.95;0.70;;;;;;;;;;5055326;28;20101;-66
2021/12/02 07:06:46;;;;;;;4.97;1.33;;;;;;;;;;5072072;28;20067;-66
2021/12/02 07:09:12;;;;;;;3.92;1.10;;;;;;;;;;5070819;28;20047;-66
2021/12/02 07:11:38;;;;;;;4.55;0.90;;;3.50;99.90;;;;;;5071313;28;20044;-66
2021/12/02 07:14:07;;;;;;;5.72;0.93;;;3.60;99.90;;;;;;5071686;28;20101;-65
2021/12/02 07:16:33;;;;;;;3.60;0.80;;;3.90;99.90;;;;;;5071470;28;20404;-66
2021/12/02 07:19:03;;;;;;;3.58;0.82;;;3.50;99.90;;;;;;5054931;28;20454;-66
2021/12/02 07:21:30;;;;;;;3.03;0.88;;;3.50;99.90;;;;;;5072210;28;20078;-66
2021/12/02 07:23:56;;;;;;;4.68;1.02;;;3.50;99.90;;;;;;5054318;28;20102;-65
2021/12/02 07:26:22;;;;;;;2.58;0.73;;;4.30;99.90;;;;;;5069079;28;20048;-65
2021/12/02 07:28:48;;;;;;;2.97;0.65;;;3.40;99.90;;;;;;5056272;28;20500;-66
2021/12/02 07:31:15;;;;;;;6.55;1.00;;;3.30;99.90;;;;;;5071346;28;20037;-66
2021/12/02 07:33:48;;;;;;;4.30;0.80;;;3.30;99.90;;;;;;5071367;28;20044;-64
2021/12/02 07:36:18;;;;;;;3.45;1.00;;;3.20;99.90;;;;;;5069758;28;20497;-68
2021/12/02 07:38:46;;;;;;;4.45;1.20;;;3.20;99.90;;;;;;5071197;28;20107;-67
2021/12/02 07:41:11;;;;;;;6.22;1.20;;;5.30;99.90;;;;;;5051069;28;20037;-66
2021/12/02 07:43:39;;;;;;;5.88;1.40;;;3.10;99.90;;;;;;5069871;28;20378;-66
2021/12/02 07:46:05;;;;;;;3.90;1.45;;;3.10;99.90;;;;;;5070754;28;20040;-66
2021/12/02 07:48:31;;;;;;;6.55;2.10;;;4.30;99.90;;;;;;5071221;28;20045;-66
2021/12/02 07:51:08;;;;;;;7.93;1.90;;;3.10;99.90;;;;;;5070326;28;20045;-66
2021/12/02 07:53:35;;;;;;;5.60;1.83;;;2.90;99.90;;;;;;5054235;28;20036;-66
2021/12/02 07:56:03;;;;;;;6.28;2.55;;;3.00;99.90;;;;;;5070903;28;20046;-66
2021/12/02 07:58:30;;;;;;;5.10;1.75;;;3.00;99.90;;;;;;5071713;28;20044;-68
2021/12/02 08:01:02;;;;;;;7.90;2.40;;;3.00;99.90;;;;;;5069963;28;20537;-66
2021/12/02 08:03:29;;;;;;;5.90;1.80;;;4.30;99.90;;;;;;5070396;28;20124;-66
2021/12/02 08:05:56;;;;;;;5.43;1.73;;;2.90;99.90;;;;;;5069234;28;20076;-64
2021/12/02 08:08:22;;;;;;;4.88;1.70;;;;;;;;;;5068992;28;20118;-65
2021/12/02 08:10:48;;;;;;;9.02;2.50;;;2.90;99.90;;;;;;5065145;28;20458;-64
2021/12/02 08:13:14;;;;;;;8.50;3.75;;;2.90;99.90;;;;;;5064064;28;20116;-68
2021/12/02 08:15:41;;;;;;;4.65;1.88;;;2.90;99.90;;;;;;5036311;28;20090;-68
2021/12/02 08:18:07;;;;;;;4.72;2.10;;;3.30;99.90;;;;;;5050239;28;20457;-66
2021/12/02 08:20:34;;;;;;;6.28;2.50;;;4.10;99.90;;;;;;5053634;28;20047;-66
2021/12/02 08:23:00;;;;;;;6.95;2.65;;;5.00;99.90;;;;;;5060653;28;20148;-67
2021/12/02 08:25:27;;;;;;;4.90;2.42;;;3.00;99.90;;;;;;5068327;28;20055;-65
2021/12/02 08:27:58;;;;;;;7.13;3.20;;;3.00;99.90;;;;;;5056799;28;20454;-66
2021/12/02 08:30:27;;;;;;;4.82;1.77;;;3.20;99.90;;;;;;5031490;28;20548;-66
2021/12/02 08:32:54;;;;;;;7.20;1.85;;;2.90;99.90;;;;;;5047790;28;20077;-67
2021/12/02 08:35:21;;;;;;;4.90;1.55;;;3.00;99.90;;;;;;5051968;28;20056;-65
2021/12/02 08:37:49;;;;;;;8.38;3.80;;;2.90;99.90;;;;;;5068278;28;20052;-66
2021/12/02 08:40:18;;;;;;;5.97;1.88;;;2.90;99.90;;;;;;5066881;28;20047;-66
2021/12/02 08:42:45;;;;;;;10.15;3.85;;;2.90;99.90;;;;;;5068344;28;20056;-66
2021/12/02 08:45:11;;;;;;;22.70;16.13;;;2.90;99.90;;;;;;5052096;28;20366;-66
2021/12/02 08:47:43;;;;;;;13.55;8.13;;;4.10;99.90;;;;;;5050981;28;20557;-66
2021/12/02 08:50:11;;;;;;;7.93;4.60;;;3.00;99.90;;;;;;5067151;28;20051;-66
2021/12/02 08:52:37;;;;;;;10.45;8.65;;;3.00;99.90;;;;;;5068170;28;20037;-66
2021/12/02 08:55:03;;;;;;;10.20;7.20;;;3.00;99.90;;;;;;5066497;28;20059;-67
2021/12/02 08:57:29;;;;;;;6.88;4.68;;;3.00;99.90;;;;;;5068528;28;20512;-66
2021/12/02 08:59:54;;;;;;;6.55;4.07;;;4.40;99.90;;;;;;5067810;28;20137;-66
2021/12/02 09:02:21;;;;;;;6.78;2.13;;;3.00;99.90;;;;;;5068249;28;20142;-67
2021/12/02 09:04:47;;;;;;;8.73;1.67;;;3.10;99.90;;;;;;5067868;28;20053;-66
2021/12/02 09:07:13;;;;;;;5.50;1.38;;;3.20;99.90;;;;;;5067178;28;20048;-67
2021/12/02 09:09:38;;;;;;;3.08;1.10;;;3.20;99.90;;;;;;5067401;28;20044;-66
2021/12/02 09:12:05;;;;;;;4.28;1.05;;;3.30;99.90;;;;;;5067441;28;20059;-67
2021/12/02 09:14:31;;;;;;;2.47;0.98;;;3.40;99.90;;;;;;5067381;28;20037;-66
2021/12/02 09:16:56;;;;;;;3.67;1.10;;;3.40;99.90;;;;;;5071075;28;20052;-67
2021/12/02 09:19:22;;;;;;;6.13;1.30;;;3.40;99.90;;;;;;5071891;28;20051;-66
2021/12/02 09:21:48;;;;;;;4.38;1.00;;;3.40;99.90;;;;;;5069594;28;20040;-67
2021/12/02 09:24:18;;;;;;;3.50;0.90;;;3.50;99.90;;;;;;5070911;28;20044;-66
2021/12/02 09:26:46;;;;;;;4.82;1.00;;;3.50;99.90;;;;;;5054147;28;20072;-66
2021/12/02 09:29:13;;;;;;;2.00;0.77;;;3.50;99.90;;;;;;5069628;28;20061;-67
2021/12/02 09:31:38;;;;;;;2.70;0.80;;;3.60;99.90;;;;;;5071473;28;20051;-67
2021/12/02 09:34:04;;;;;;;5.07;0.85;;;3.60;99.90;;;;;;5071274;28;20048;-66
2021/12/02 09:36:29;;;;;;;2.13;0.77;;;3.60;99.90;;;;;;5070884;28;20076;-66
2021/12/02 09:38:55;;;;;;;2.80;0.60;;;3.70;99.90;;;;;;5070768;28;20118;-71
2021/12/02 09:41:21;;;;;;;5.40;0.90;;;3.70;99.90;;;;;;5062607;28;20119;-68
2021/12/02 09:43:46;;;;;;;2.13;0.75;;;3.80;99.90;;;;;;5069637;28;20041;-68
2021/12/02 09:46:12;;;;;;;3.38;0.98;;;3.80;99.90;;;;;;5053633;28;20036;-67
2021/12/02 09:48:39;;;;;;;3.50;0.60;;;;;;;;;;5071176;28;20045;-68
2021/12/02 09:51:11;;;;;;;23.00;14.60;;;;;;;;;;5069408;28;20493;-68
2021/12/02 09:53:48;;;;;;;4.82;1.75;;;;;;;;;;5070987;28;20048;-68
2021/12/02 09:56:26;;;;;;;10.48;5.20;;;4.30;99.90;;;;;;5071415;28;20052;-67
2021/12/02 09:58:55;;;;;;;3.35;0.80;;;4.40;99.90;;;;;;5070201;28;20055;-69
2021/12/02 10:01:26;;;;;;;4.88;1.02;;;4.50;99.90;;;;;;5070462;28;20048;-68
2021/12/02 10:03:59;;;;;;;3.88;1.42;;;4.30;99.90;;;;;;5070455;28;20425;-67
2021/12/02 10:06:29;;;;;;;1.85;0.55;;;3.90;99.90;;;;;;5069869;28;20040;-67
2021/12/02 10:11:54;;;;;;;2.65;0.73;;;2.90;99.90;;;;;;5053071;28;20041;-66
2021/12/02 10:14:28;;;;;;;1.48;0.50;;;2.60;99.90;;;;;;5033676;28;20392;-68
2021/12/02 10:17:12;;;;;;;2.63;0.55;;;2.40;99.90;;;;;;5051326;28;20051;-72
2021/12/02 10:23:04;;;;;;;4.53;0.77;;;2.20;99.90;;;;;;5069072;28;20091;-73
2021/12/02 10:25:35;;;;;;;5.18;0.70;;;2.10;99.90;;;;;;5068858;28;20056;-73
2021/12/02 10:28:02;;;;;;;3.38;0.70;;;2.10;99.90;;;;;;5069815;28;20055;-73
2021/12/02 10:30:28;;;;;;;3.28;0.88;;;2.10;99.90;;;;;;5070411;28;20492;-75
2021/12/02 10:32:53;;;;;;;5.78;2.33;;;2.10;99.90;;;;;;5070899;28;20063;-72
2021/12/02 10:35:46;;;;;;;27.08;14.77;;;4.60;99.90;;;;;;5070540;28;20124;-73
2021/12/02 10:38:33;;;;;;;13.48;7.60;;;2.20;99.90;;;;;;5090691;28;20052;-77
2021/12/02 10:41:02;;;;;;;11.60;4.93;;;2.30;99.90;;;;;;5067453;28;20044;-73
2021/12/02 10:43:27;;;;;;;5.40;2.47;;;2.30;99.90;;;;;;5057553;28;20051;-76
2021/12/02 10:46:13;;;;;;;11.20;5.07;;;2.30;99.90;;;;;;5051380;28;20043;-81
2021/12/02 10:48:50;;;;;;;7.40;3.08;;;2.30;99.90;;;;;;5046361;28;20044;-78
2021/12/02 10:51:40;;;;;;;4.07;1.73;;;2.30;99.90;;;;;;5070580;28;20083;-74
2021/12/02 10:54:13;;;;;;;5.60;1.77;;;2.40;99.90;;;;;;5068856;28;20082;-75
2021/12/02 10:56:41;;;;;;;3.75;1.10;;;2.40;99.90;;;;;;5070274;28;20083;-73
2021/12/02 10:59:30;;;;;;;5.60;1.60;;;2.40;99.90;;;;;;5069502;28;20036;-73
2021/12/02 11:02:08;;;;;;;2.75;1.13;;;2.60;99.90;;;;;;5052474;28;20075;-74
2021/12/02 11:04:36;;;;;;;4.93;1.30;;;2.60;99.90;;;;;;5070570;28;20051;-75
2021/12/02 11:07:02;;;;;;;8.13;5.35;;;2.80;99.90;;;;;;5068440;28;20066;-73
2021/12/02 11:09:30;;;;;;;4.43;2.20;;;2.90;99.90;;;;;;5069502;28;20047;-73
2021/12/02 11:12:11;;;;;;;10.52;5.72;;;2.90;99.90;;;;;;5069403;28;20748;-73
2021/12/02 11:14:50;;;;;;;7.30;1.92;;;3.00;99.90;;;;;;5068612;28;20052;-73
2021/12/02 11:17:16;;;;;;;3.70;1.17;;;2.90;99.90;;;;;;5083978;28;20149;-73
2021/12/02 11:19:44;;;;;;;3.55;0.90;;;3.60;99.90;;;;;;5056601;28;20094;-72
2021/12/02 11:22:15;;;;;;;2.83;0.77;;;3.30;99.90;;;;;;5071023;28;20397;-72
2021/12/02 11:24:41;;;;;;;5.15;0.85;;;3.30;99.90;;;;;;5071464;28;20079;-72
2021/12/02 11:27:11;;;;;;;3.25;0.57;;;3.40;99.90;;;;;;5062066;28;20041;-73
2021/12/02 11:29:46;;;;;;;5.00;1.15;;;3.90;99.90;;;;;;5035541;28;20367;-74
2021/12/02 11:32:30;;;;;;;;;;;3.90;99.90;;;;;;5051515;28;20036;-71
2021/12/02 11:35:02;;;;;;;7.47;2.63;;;3.80;99.90;;;;;;5070542;28;19916;-71
2021/12/02 11:37:28;;;;;;;4.03;1.00;;;3.90;99.90;;;;;;5066281;28;20091;-72
2021/12/02 11:39:55;;;;;;;5.75;1.00;;;4.00;99.90;;;;;;5051556;28;20077;-72
2021/12/02 11:42:21;;;;;;;2.78;1.00;;;4.10;99.90;;;;;;5050312;28;20489;-72
2021/12/02 11:44:48;;;;;;;3.65;1.30;;;4.00;99.90;;;;;;5063091;28;20051;-73
2021/12/02 11:47:13;;;;;;;4.15;1.20;;;3.80;99.90;;;;;;5070735;28;20052;-74
2021/12/02 11:49:41;;;;;;;3.83;1.27;;;4.00;99.90;;;;;;5054044;28;20109;-72
2021/12/02 11:52:08;;;;;;;4.05;1.55;;;3.80;99.90;;;;;;5070407;28;20048;-71
2021/12/02 11:54:33;;;;;;;4.78;1.85;;;4.10;99.90;;;;;;5071283;28;20485;-72
2021/12/02 11:56:59;;;;;;;4.28;1.30;;;4.00;99.90;;;;;;5053166;28;20074;-73
2021/12/02 11:59:28;;;;;;;6.60;3.10;;;;;;;;;;5052619;28;20040;-70
2021/12/02 12:01:55;;;;;;;2.13;1.00;;;;;;;;;;5065295;28;20489;-67
2021/12/02 12:04:21;;;;;;;5.28;1.10;;;4.20;99.90;;;;;;5045149;28;20124;-69
2021/12/02 12:06:53;;;;;;;3.97;1.65;;;4.10;99.90;;;;;;5051075;28;20049;-72
2021/12/02 12:09:21;;;;;;;4.40;2.15;;;5.40;99.90;;;;;;5051891;28;20473;-68
2021/12/02 12:11:55;;;;;;;2.75;1.20;;;4.20;99.90;;;;;;5051389;28;20037;-67
2021/12/02 12:14:41;;;;;;;2.07;0.80;;;3.80;99.90;;;;;;5057915;28;20436;-64
2021/12/02 12:17:12;;;;;;;6.82;2.70;;;4.20;99.90;;;;;;5058351;28;20293;-67
2021/12/02 12:19:43;;;;;;;6.68;1.45;;;4.30;99.90;;;;;;5070600;28;20102;-68
2021/12/02 12:22:23;;;;;;;4.10;1.05;;;4.30;99.90;;;;;;5070616;28;20102;-67
2021/12/02 12:24:55;;;;;;;3.65;1.20;;;4.40;99.90;;;;;;5069400;28;20041;-68
2021/12/02 12:27:29;;;;;;;3.17;0.90;;;4.70;99.90;;;;;;5057774;28;20040;-67
2021/12/02 12:30:02;;;;;;;3.00;0.88;;;4.40;99.90;;;;;;5070307;28;20075;-68
2021/12/02 12:32:37;;;;;;;4.05;1.25;;;4.40;99.90;;;;;;5070413;28;20048;-67
2021/12/02 12:35:21;;;;;;;8.25;3.58;;;4.40;99.90;;;;;;5070569;28;20044;-68
2021/12/02 12:37:49;;;;;;;5.75;2.50;;;4.50;99.90;;;;;;5070001;28;20467;-69
2021/12/02 12:40:21;;;;;;;3.38;0.93;;;4.30;99.90;;;;;;5051292;28;20040;-69
2021/12/02 12:42:48;;;;;;;1.60;0.75;;;4.40;99.90;;;;;;5058446;28;20049;-68
2021/12/02 12:45:37;;;;;;;3.40;0.85;;;5.30;99.90;;;;;;5067784;28;20497;-68
2021/12/02 12:48:04;;;;;;;4.72;0.95;;;4.40;99.90;;;;;;5069996;28;20052;-68
2021/12/02 12:50:42;;;;;;;2.60;0.98;;;4.40;99.90;;;;;;5056048;28;20448;-68
2021/12/02 12:53:16;;;;;;;4.28;1.10;;;5.30;99.90;;;;;;5073472;28;20039;-69
2021/12/02 12:55:59;;;;;;;7.00;1.00;;;4.40;99.90;;;;;;5074704;28;20510;-69
2021/12/02 12:58:31;;;;;;;2.95;0.90;;;4.90;99.90;;;;;;5075007;28;20447;-68
2021/12/02 13:01:25;;;;;;;5.65;1.10;;;4.30;99.90;;;;;;5073779;28;20496;-68
2021/12/02 13:04:08;;;;;;;3.85;1.50;;;4.40;99.90;;;;;;5069097;28;20048;-68
2021/12/02 13:07:00;;;;;;;3.22;0.85;;;4.40;99.90;;;;;;5073776;28;20064;-68
2021/12/02 13:10:03;;;;;;;5.95;1.20;;;4.40;99.90;;;;;;5075127;28;20080;-68
2021/12/02 13:12:46;;;;;;;5.65;2.42;;;4.40;99.90;;;;;;5074033;28;20393;-68
2021/12/02 13:15:17;;;;;;;12.15;4.57;;;4.30;99.90;;;;;;5072338;28;20040;-67
2021/12/02 13:17:59;;;;;;;42.00;17.65;;;4.30;99.90;;;;;;5063461;28;20044;-67
2021/12/02 13:20:34;;;;;;;33.42;11.73;;;4.30;99.90;;;;;;5074308;28;20120;-69
2021/12/02 13:23:12;;;;;;;48.10;20.20;;;4.30;99.90;;;;;;5056466;28;20040;-67
2021/12/02 13:25:46;;;;;;;24.73;8.60;;;4.20;99.90;;;;;;5073779;28;20052;-68
2021/12/02 13:28:17;;;;;;;6.40;1.40;;;4.20;99.90;;;;;;5055988;28;20036;-71
2021/12/02 13:30:52;;;;;;;9.70;4.25;;;3.90;99.90;;;;;;5057620;28;20393;-67
2021/12/02 13:33:18;;;;;;;7.60;3.25;;;3.90;99.90;;;;;;5074529;28;20048;-67
2021/12/02 13:35:44;;;;;;;10.00;4.88;;;4.20;99.90;;;;;;5073216;28;20474;-70
2021/12/02 13:38:11;;;;;;;8.25;4.53;;;3.90;99.90;;;;;;5073470;28;20059;-71
2021/12/02 13:40:39;;;;;;;9.30;4.88;;;4.20;99.90;;;;;;5073653;28;20124;-70
2021/12/02 13:43:06;;;;;;;3.95;1.48;;;5.30;99.90;;;;;;5073631;28;20032;-69
2021/12/02 13:45:32;;;;;;;3.50;0.70;;;5.30;99.90;;;;;;5073725;28;20074;-69